sensor_id;sensor_type;location;lat;lon;timestamp;P1;durP1;ratioP1;P2;durP2;ratioP2
6306;SDS011;3186;54.062;9.962;2023-01-09T00:01:40;2.90;;;2.60;;
6306;SDS011;3186;54.062;9.962;2023-01-09T00:04:08;4.17;;;2.60;;
6306;SDS011;3186;54.062;9.962;2023-01-09T00:06:34;4.10;;;2.50;;
6306;SDS011;3186;54.062;9.962;2023-01-09T00:09:00;2.67;;;2.30;;
6306;SDS011;3186;54.062;9.962;2023-01-09T00:11:27;3.73;;;2.40;;
6306;SDS011;3186;54.062;9.962;2023-01-09T00:13:52;3.43;;;2.53;;
6306;SDS011;3186;54.062;9.962;2023-01-09T00:16:18;3.03;;;2.10;;
6306;SDS011;3186;54.062;9.962;2023-01-09T00:18:44;4.40;;;2.83;;
6306;SDS011;3186;54.062;9.962;2023-01-09T00:21:13;3.60;;;2.40;;
6306;SDS011;3186;54.062;9.962;2023-01-09T00:23:39;4.07;;;2.70;;
6306;SDS011;3186;54.062;9.962;2023-01-09T00:26:06;2.30;;;2.00;;
6306;SDS011;3186;54.062;9.962;2023-01-09T00:28:34;5.30;;;2.40;;
6306;SDS011;3186;54.062;9.962;2023-01-09T00:31:00;4.33;;;2.63;;
6306;SDS011;3186;54.062;9.962;2023-01-09T00:33:29;2.43;;;2.23;;
6306;SDS011;3186;54.062;9.962;2023-01-09T00:35:57;4.07;;;2.53;;
6306;SDS011;3186;54.062;9.962;2023-01-09T00:38:23;3.03;;;2.40;;
6306;SDS011;3186;54.062;9.962;2023-01-09T00:40:49;3.63;;;2.63;;
6306;SDS011;3186;54.062;9.962;2023-01-09T00:43:16;2.63;;;2.23;;
6306;SDS011;3186;54.062;9.962;2023-01-09T00:45:44;2.07;;;1.97;;
6306;SDS011;3186;54.062;9.962;2023-01-09T00:48:10;3.70;;;2.50;;
6306;SDS011;3186;54.062;9.962;2023-01-09T00:50:39;3.80;;;2.50;;
6306;SDS011;3186;54.062;9.962;2023-01-09T00:53:07;3.40;;;2.43;;
6306;SDS011;3186;54.062;9.962;2023-01-09T00:55:37;2.43;;;2.23;;
6306;SDS011;3186;54.062;9.962;2023-01-09T00:58:04;3.53;;;2.03;;
6306;SDS011;3186;54.062;9.962;2023-01-09T01:00:30;3.20;;;2.40;;
6306;SDS011;3186;54.062;9.962;2023-01-09T01:02:56;2.33;;;2.13;;
6306;SDS011;3186;54.062;9.962;2023-01-09T01:05:22;2.50;;;2.17;;
6306;SDS011;3186;54.062;9.962;2023-01-09T01:08:10;3.10;;;2.80;;
6306;SDS011;3186;54.062;9.962;2023-01-09T01:10:37;2.73;;;2.20;;
6306;SDS011;3186;54.062;9.962;2023-01-09T01:13:03;2.80;;;2.03;;
6306;SDS011;3186;54.062;9.962;2023-01-09T01:15:29;3.27;;;2.37;;
6306;SDS011;3186;54.062;9.962;2023-01-09T01:17:55;2.70;;;2.40;;
6306;SDS011;3186;54.062;9.962;2023-01-09T01:20:21;2.40;;;2.20;;
6306;SDS011;3186;54.062;9.962;2023-01-09T01:22:47;3.83;;;2.27;;
6306;SDS011;3186;54.062;9.962;2023-01-09T01:25:14;2.80;;;2.50;;
6306;SDS011;3186;54.062;9.962;2023-01-09T01:27:41;3.60;;;2.33;;
6306;SDS011;3186;54.062;9.962;2023-01-09T01:30:08;2.87;;;2.27;;
6306;SDS011;3186;54.062;9.962;2023-01-09T01:32:36;4.27;;;2.73;;
6306;SDS011;3186;54.062;9.962;2023-01-09T01:35:02;2.73;;;2.30;;
6306;SDS011;3186;54.062;9.962;2023-01-09T01:37:28;4.40;;;2.30;;
6306;SDS011;3186;54.062;9.962;2023-01-09T01:39:54;2.87;;;2.40;;
6306;SDS011;3186;54.062;9.962;2023-01-09T01:42:20;5.03;;;2.67;;
6306;SDS011;3186;54.062;9.962;2023-01-09T01:45:04;4.50;;;2.30;;
6306;SDS011;3186;54.062;9.962;2023-01-09T01:58:22;2.90;;;2.43;;
6306;SDS011;3186;54.062;9.962;2023-01-09T02:00:50;2.70;;;2.47;;
6306;SDS011;3186;54.062;9.962;2023-01-09T02:03:17;3.13;;;2.27;;
6306;SDS011;3186;54.062;9.962;2023-01-09T02:05:46;4.20;;;2.87;;
6306;SDS011;3186;54.062;9.962;2023-01-09T02:08:13;3.53;;;2.80;;
6306;SDS011;3186;54.062;9.962;2023-01-09T02:10:39;3.80;;;2.43;;
6306;SDS011;3186;54.062;9.962;2023-01-09T02:13:06;3.30;;;2.07;;
6306;SDS011;3186;54.062;9.962;2023-01-09T02:15:41;3.27;;;2.90;;
6306;SDS011;3186;54.062;9.962;2023-01-09T02:32:18;2.43;;;2.23;;
6306;SDS011;3186;54.062;9.962;2023-01-09T02:38:00;3.77;;;2.67;;
6306;SDS011;3186;54.062;9.962;2023-01-09T02:43:14;2.93;;;2.67;;
6306;SDS011;3186;54.062;9.962;2023-01-09T02:45:40;2.93;;;2.17;;
6306;SDS011;3186;54.062;9.962;2023-01-09T02:48:08;3.27;;;2.93;;
6306;SDS011;3186;54.062;9.962;2023-01-09T02:50:40;3.47;;;2.40;;
6306;SDS011;3186;54.062;9.962;2023-01-09T03:01:17;2.67;;;2.47;;
6306;SDS011;3186;54.062;9.962;2023-01-09T03:03:52;5.37;;;2.67;;
6306;SDS011;3186;54.062;9.962;2023-01-09T03:09:23;5.17;;;2.80;;
6306;SDS011;3186;54.062;9.962;2023-01-09T03:12:00;4.27;;;2.20;;
6306;SDS011;3186;54.062;9.962;2023-01-09T03:14:33;3.57;;;2.50;;
6306;SDS011;3186;54.062;9.962;2023-01-09T03:17:03;3.23;;;2.47;;
6306;SDS011;3186;54.062;9.962;2023-01-09T03:19:31;3.70;;;2.70;;
6306;SDS011;3186;54.062;9.962;2023-01-09T03:21:59;3.70;;;2.50;;
6306;SDS011;3186;54.062;9.962;2023-01-09T03:24:25;3.83;;;2.97;;
6306;SDS011;3186;54.062;9.962;2023-01-09T03:26:51;3.33;;;2.70;;
6306;SDS011;3186;54.062;9.962;2023-01-09T03:29:19;8.03;;;3.10;;
6306;SDS011;3186;54.062;9.962;2023-01-09T03:31:45;4.03;;;2.63;;
6306;SDS011;3186;54.062;9.962;2023-01-09T03:34:11;3.67;;;2.70;;
6306;SDS011;3186;54.062;9.962;2023-01-09T03:36:37;6.43;;;3.10;;
6306;SDS011;3186;54.062;9.962;2023-01-09T03:39:03;3.57;;;2.73;;
6306;SDS011;3186;54.062;9.962;2023-01-09T03:41:28;5.97;;;3.43;;
6306;SDS011;3186;54.062;9.962;2023-01-09T03:43:54;3.67;;;3.27;;
6306;SDS011;3186;54.062;9.962;2023-01-09T03:46:20;4.67;;;3.20;;
6306;SDS011;3186;54.062;9.962;2023-01-09T03:48:46;3.57;;;3.13;;
6306;SDS011;3186;54.062;9.962;2023-01-09T03:51:12;3.13;;;2.60;;
6306;SDS011;3186;54.062;9.962;2023-01-09T03:53:37;3.80;;;3.40;;
6306;SDS011;3186;54.062;9.962;2023-01-09T03:56:03;5.93;;;3.23;;
6306;SDS011;3186;54.062;9.962;2023-01-09T03:58:29;3.20;;;2.90;;
6306;SDS011;3186;54.062;9.962;2023-01-09T04:01:02;7.10;;;3.30;;
6306;SDS011;3186;54.062;9.962;2023-01-09T04:03:30;5.40;;;3.20;;
6306;SDS011;3186;54.062;9.962;2023-01-09T04:05:55;4.83;;;3.73;;
6306;SDS011;3186;54.062;9.962;2023-01-09T04:08:21;5.60;;;3.43;;
6306;SDS011;3186;54.062;9.962;2023-01-09T04:10:47;4.80;;;3.40;;
6306;SDS011;3186;54.062;9.962;2023-01-09T04:13:14;4.60;;;3.23;;
6306;SDS011;3186;54.062;9.962;2023-01-09T04:15:40;7.30;;;3.97;;
6306;SDS011;3186;54.062;9.962;2023-01-09T04:18:06;5.30;;;3.60;;
6306;SDS011;3186;54.062;9.962;2023-01-09T04:20:32;5.73;;;3.60;;
6306;SDS011;3186;54.062;9.962;2023-01-09T04:22:58;8.13;;;3.83;;
6306;SDS011;3186;54.062;9.962;2023-01-09T04:25:25;6.13;;;3.77;;
6306;SDS011;3186;54.062;9.962;2023-01-09T04:27:51;5.17;;;3.47;;
6306;SDS011;3186;54.062;9.962;2023-01-09T04:30:17;7.43;;;3.80;;
6306;SDS011;3186;54.062;9.962;2023-01-09T04:32:43;4.13;;;3.50;;
6306;SDS011;3186;54.062;9.962;2023-01-09T04:35:09;5.33;;;4.07;;
6306;SDS011;3186;54.062;9.962;2023-01-09T04:37:35;5.27;;;3.80;;
6306;SDS011;3186;54.062;9.962;2023-01-09T04:40:01;5.73;;;4.33;;
6306;SDS011;3186;54.062;9.962;2023-01-09T04:42:33;6.57;;;4.30;;
6306;SDS011;3186;54.062;9.962;2023-01-09T04:44:58;3.87;;;3.33;;
6306;SDS011;3186;54.062;9.962;2023-01-09T04:47:24;6.20;;;4.53;;
6306;SDS011;3186;54.062;9.962;2023-01-09T04:49:50;6.53;;;3.80;;
6306;SDS011;3186;54.062;9.962;2023-01-09T04:52:16;3.90;;;3.50;;
6306;SDS011;3186;54.062;9.962;2023-01-09T04:54:42;5.73;;;4.43;;
6306;SDS011;3186;54.062;9.962;2023-01-09T04:57:08;7.07;;;4.33;;
6306;SDS011;3186;54.062;9.962;2023-01-09T04:59:33;5.00;;;4.30;;
6306;SDS011;3186;54.062;9.962;2023-01-09T05:01:59;3.87;;;3.00;;
6306;SDS011;3186;54.062;9.962;2023-01-09T05:04:25;4.63;;;3.13;;
6306;SDS011;3186;54.062;9.962;2023-01-09T05:06:51;6.20;;;4.50;;
6306;SDS011;3186;54.062;9.962;2023-01-09T05:09:17;5.10;;;4.60;;
6306;SDS011;3186;54.062;9.962;2023-01-09T05:11:43;6.53;;;4.40;;
6306;SDS011;3186;54.062;9.962;2023-01-09T05:14:09;9.53;;;5.30;;
6306;SDS011;3186;54.062;9.962;2023-01-09T05:16:34;7.77;;;5.77;;
6306;SDS011;3186;54.062;9.962;2023-01-09T05:19:00;5.70;;;4.53;;
6306;SDS011;3186;54.062;9.962;2023-01-09T05:21:27;5.07;;;4.47;;
6306;SDS011;3186;54.062;9.962;2023-01-09T05:23:53;5.53;;;4.60;;
6306;SDS011;3186;54.062;9.962;2023-01-09T05:26:19;4.70;;;3.50;;
6306;SDS011;3186;54.062;9.962;2023-01-09T05:28:51;8.77;;;5.37;;
6306;SDS011;3186;54.062;9.962;2023-01-09T05:31:18;6.43;;;4.97;;
6306;SDS011;3186;54.062;9.962;2023-01-09T05:33:44;6.13;;;4.10;;
6306;SDS011;3186;54.062;9.962;2023-01-09T05:36:10;6.23;;;4.37;;
6306;SDS011;3186;54.062;9.962;2023-01-09T05:38:36;7.53;;;4.90;;
6306;SDS011;3186;54.062;9.962;2023-01-09T05:41:02;8.07;;;5.53;;
6306;SDS011;3186;54.062;9.962;2023-01-09T05:43:28;5.97;;;4.20;;
6306;SDS011;3186;54.062;9.962;2023-01-09T05:45:54;5.17;;;4.60;;
6306;SDS011;3186;54.062;9.962;2023-01-09T05:48:20;8.13;;;5.40;;
6306;SDS011;3186;54.062;9.962;2023-01-09T05:50:46;7.33;;;4.90;;
6306;SDS011;3186;54.062;9.962;2023-01-09T05:53:12;6.77;;;4.90;;
6306;SDS011;3186;54.062;9.962;2023-01-09T05:55:38;5.97;;;3.90;;
6306;SDS011;3186;54.062;9.962;2023-01-09T05:58:03;5.87;;;4.23;;
6306;SDS011;3186;54.062;9.962;2023-01-09T06:00:29;6.80;;;4.77;;
6306;SDS011;3186;54.062;9.962;2023-01-09T06:02:55;5.73;;;4.20;;
6306;SDS011;3186;54.062;9.962;2023-01-09T06:05:21;8.83;;;5.60;;
6306;SDS011;3186;54.062;9.962;2023-01-09T06:07:47;8.80;;;5.30;;
6306;SDS011;3186;54.062;9.962;2023-01-09T06:10:13;6.30;;;5.17;;
6306;SDS011;3186;54.062;9.962;2023-01-09T06:12:40;6.33;;;4.70;;
6306;SDS011;3186;54.062;9.962;2023-01-09T06:15:08;6.20;;;4.97;;
6306;SDS011;3186;54.062;9.962;2023-01-09T06:17:34;5.57;;;4.30;;
6306;SDS011;3186;54.062;9.962;2023-01-09T06:20:00;8.27;;;5.20;;
6306;SDS011;3186;54.062;9.962;2023-01-09T06:22:26;6.87;;;4.87;;
6306;SDS011;3186;54.062;9.962;2023-01-09T06:24:52;6.20;;;4.73;;
6306;SDS011;3186;54.062;9.962;2023-01-09T06:27:18;5.83;;;4.37;;
6306;SDS011;3186;54.062;9.962;2023-01-09T06:29:44;5.70;;;3.77;;
6306;SDS011;3186;54.062;9.962;2023-01-09T06:32:09;4.83;;;4.20;;
6306;SDS011;3186;54.062;9.962;2023-01-09T06:34:35;5.50;;;4.17;;
6306;SDS011;3186;54.062;9.962;2023-01-09T06:37:01;6.67;;;4.70;;
6306;SDS011;3186;54.062;9.962;2023-01-09T06:39:27;3.87;;;3.40;;
6306;SDS011;3186;54.062;9.962;2023-01-09T06:41:52;5.23;;;3.90;;
6306;SDS011;3186;54.062;9.962;2023-01-09T06:44:18;4.87;;;3.80;;
6306;SDS011;3186;54.062;9.962;2023-01-09T06:46:44;4.27;;;3.50;;
6306;SDS011;3186;54.062;9.962;2023-01-09T06:49:10;3.83;;;3.47;;
6306;SDS011;3186;54.062;9.962;2023-01-09T06:51:36;4.23;;;3.27;;
6306;SDS011;3186;54.062;9.962;2023-01-09T06:54:01;3.83;;;3.33;;
6306;SDS011;3186;54.062;9.962;2023-01-09T06:56:27;4.83;;;3.57;;
6306;SDS011;3186;54.062;9.962;2023-01-09T06:58:53;4.17;;;3.30;;
6306;SDS011;3186;54.062;9.962;2023-01-09T07:01:19;3.70;;;2.93;;
6306;SDS011;3186;54.062;9.962;2023-01-09T07:03:45;4.53;;;3.10;;
6306;SDS011;3186;54.062;9.962;2023-01-09T07:06:12;5.10;;;3.77;;
6306;SDS011;3186;54.062;9.962;2023-01-09T07:08:38;3.77;;;2.83;;
6306;SDS011;3186;54.062;9.962;2023-01-09T07:11:04;4.83;;;3.37;;
6306;SDS011;3186;54.062;9.962;2023-01-09T07:13:30;3.87;;;3.10;;
6306;SDS011;3186;54.062;9.962;2023-01-09T07:15:55;3.50;;;3.03;;
6306;SDS011;3186;54.062;9.962;2023-01-09T07:18:21;3.23;;;2.93;;
6306;SDS011;3186;54.062;9.962;2023-01-09T07:20:47;3.10;;;2.80;;
6306;SDS011;3186;54.062;9.962;2023-01-09T07:23:13;3.53;;;3.10;;
6306;SDS011;3186;54.062;9.962;2023-01-09T07:25:42;6.67;;;4.40;;
6306;SDS011;3186;54.062;9.962;2023-01-09T07:28:09;5.30;;;4.23;;
6306;SDS011;3186;54.062;9.962;2023-01-09T07:30:35;4.17;;;2.63;;
6306;SDS011;3186;54.062;9.962;2023-01-09T07:33:01;5.57;;;4.20;;
6306;SDS011;3186;54.062;9.962;2023-01-09T07:35:27;5.00;;;3.43;;
6306;SDS011;3186;54.062;9.962;2023-01-09T07:37:53;4.83;;;4.10;;
6306;SDS011;3186;54.062;9.962;2023-01-09T07:40:18;6.07;;;4.30;;
6306;SDS011;3186;54.062;9.962;2023-01-09T07:42:44;5.13;;;4.07;;
6306;SDS011;3186;54.062;9.962;2023-01-09T07:45:10;8.00;;;6.03;;
6306;SDS011;3186;54.062;9.962;2023-01-09T07:47:37;6.60;;;5.27;;
6306;SDS011;3186;54.062;9.962;2023-01-09T07:50:04;6.93;;;4.10;;
6306;SDS011;3186;54.062;9.962;2023-01-09T07:52:30;4.63;;;4.23;;
6306;SDS011;3186;54.062;9.962;2023-01-09T07:54:56;4.60;;;4.10;;
6306;SDS011;3186;54.062;9.962;2023-01-09T07:57:22;4.03;;;3.63;;
6306;SDS011;3186;54.062;9.962;2023-01-09T07:59:48;5.63;;;4.30;;
6306;SDS011;3186;54.062;9.962;2023-01-09T08:02:13;4.40;;;3.70;;
6306;SDS011;3186;54.062;9.962;2023-01-09T08:04:39;6.50;;;4.47;;
6306;SDS011;3186;54.062;9.962;2023-01-09T08:07:05;4.57;;;3.93;;
6306;SDS011;3186;54.062;9.962;2023-01-09T08:09:30;4.20;;;3.17;;
6306;SDS011;3186;54.062;9.962;2023-01-09T08:11:56;6.23;;;3.87;;
6306;SDS011;3186;54.062;9.962;2023-01-09T08:14:22;4.40;;;4.00;;
6306;SDS011;3186;54.062;9.962;2023-01-09T08:16:48;5.67;;;3.10;;
6306;SDS011;3186;54.062;9.962;2023-01-09T08:19:14;3.87;;;3.30;;
6306;SDS011;3186;54.062;9.962;2023-01-09T08:21:39;3.87;;;3.40;;
6306;SDS011;3186;54.062;9.962;2023-01-09T08:24:05;4.00;;;3.60;;
6306;SDS011;3186;54.062;9.962;2023-01-09T08:26:31;4.70;;;3.40;;
6306;SDS011;3186;54.062;9.962;2023-01-09T08:28:57;3.63;;;3.00;;
6306;SDS011;3186;54.062;9.962;2023-01-09T08:31:23;3.80;;;3.50;;
6306;SDS011;3186;54.062;9.962;2023-01-09T08:33:49;4.23;;;3.80;;
6306;SDS011;3186;54.062;9.962;2023-01-09T08:36:14;5.37;;;4.07;;
6306;SDS011;3186;54.062;9.962;2023-01-09T08:38:40;3.97;;;3.33;;
6306;SDS011;3186;54.062;9.962;2023-01-09T08:41:06;4.90;;;3.80;;
6306;SDS011;3186;54.062;9.962;2023-01-09T08:43:50;6.70;;;5.30;;
6306;SDS011;3186;54.062;9.962;2023-01-09T08:46:34;6.37;;;4.50;;
6306;SDS011;3186;54.062;9.962;2023-01-09T08:49:19;6.37;;;4.53;;
6306;SDS011;3186;54.062;9.962;2023-01-09T08:51:45;5.93;;;3.67;;
6306;SDS011;3186;54.062;9.962;2023-01-09T08:54:11;7.33;;;5.90;;
6306;SDS011;3186;54.062;9.962;2023-01-09T08:56:37;9.57;;;7.60;;
6306;SDS011;3186;54.062;9.962;2023-01-09T08:59:02;10.80;;;6.77;;
6306;SDS011;3186;54.062;9.962;2023-01-09T09:01:28;10.73;;;7.33;;
6306;SDS011;3186;54.062;9.962;2023-01-09T09:03:54;13.13;;;7.87;;
6306;SDS011;3186;54.062;9.962;2023-01-09T09:06:20;12.70;;;7.83;;
6306;SDS011;3186;54.062;9.962;2023-01-09T09:08:46;9.50;;;6.50;;
6306;SDS011;3186;54.062;9.962;2023-01-09T09:11:12;13.63;;;8.60;;
6306;SDS011;3186;54.062;9.962;2023-01-09T09:13:38;9.93;;;7.70;;
6306;SDS011;3186;54.062;9.962;2023-01-09T09:16:03;12.87;;;8.43;;
6306;SDS011;3186;54.062;9.962;2023-01-09T09:18:29;10.93;;;8.23;;
6306;SDS011;3186;54.062;9.962;2023-01-09T09:20:55;12.93;;;9.23;;
6306;SDS011;3186;54.062;9.962;2023-01-09T09:23:21;11.17;;;7.93;;
6306;SDS011;3186;54.062;9.962;2023-01-09T09:25:47;10.07;;;7.93;;
6306;SDS011;3186;54.062;9.962;2023-01-09T09:28:13;10.50;;;7.67;;
6306;SDS011;3186;54.062;9.962;2023-01-09T09:30:39;15.07;;;8.60;;
6306;SDS011;3186;54.062;9.962;2023-01-09T09:33:05;13.73;;;8.87;;
6306;SDS011;3186;54.062;9.962;2023-01-09T09:35:31;11.73;;;8.37;;
6306;SDS011;3186;54.062;9.962;2023-01-09T09:37:59;13.97;;;8.40;;
6306;SDS011;3186;54.062;9.962;2023-01-09T09:40:41;13.70;;;8.93;;
6306;SDS011;3186;54.062;9.962;2023-01-09T09:43:27;13.27;;;8.70;;
6306;SDS011;3186;54.062;9.962;2023-01-09T09:54:47;11.23;;;7.60;;
6306;SDS011;3186;54.062;9.962;2023-01-09T09:57:18;15.60;;;8.30;;
6306;SDS011;3186;54.062;9.962;2023-01-09T09:59:50;14.40;;;8.87;;
6306;SDS011;3186;54.062;9.962;2023-01-09T10:02:22;13.80;;;8.23;;
6306;SDS011;3186;54.062;9.962;2023-01-09T10:04:54;12.60;;;7.53;;
6306;SDS011;3186;54.062;9.962;2023-01-09T10:07:34;10.93;;;8.03;;
6306;SDS011;3186;54.062;9.962;2023-01-09T10:10:09;9.27;;;7.13;;
6306;SDS011;3186;54.062;9.962;2023-01-09T10:12:54;11.70;;;7.00;;
6306;SDS011;3186;54.062;9.962;2023-01-09T10:15:43;11.27;;;7.10;;
6306;SDS011;3186;54.062;9.962;2023-01-09T10:18:17;12.77;;;7.17;;
6306;SDS011;3186;54.062;9.962;2023-01-09T10:20:54;11.67;;;6.70;;
6306;SDS011;3186;54.062;9.962;2023-01-09T10:23:38;14.63;;;7.47;;
6306;SDS011;3186;54.062;9.962;2023-01-09T10:34:48;12.40;;;8.27;;
6306;SDS011;3186;54.062;9.962;2023-01-09T10:37:37;10.13;;;7.50;;
6306;SDS011;3186;54.062;9.962;2023-01-09T10:45:46;12.10;;;7.57;;
6306;SDS011;3186;54.062;9.962;2023-01-09T10:48:29;16.20;;;9.57;;
6306;SDS011;3186;54.062;9.962;2023-01-09T10:51:01;18.13;;;8.53;;
6306;SDS011;3186;54.062;9.962;2023-01-09T10:53:55;17.80;;;9.83;;
6306;SDS011;3186;54.062;9.962;2023-01-09T10:56:27;17.50;;;8.97;;
6306;SDS011;3186;54.062;9.962;2023-01-09T10:58:58;17.33;;;11.00;;
6306;SDS011;3186;54.062;9.962;2023-01-09T11:01:25;15.20;;;10.27;;
6306;SDS011;3186;54.062;9.962;2023-01-09T11:03:52;22.93;;;13.63;;
6306;SDS011;3186;54.062;9.962;2023-01-09T11:06:23;24.57;;;13.63;;
6306;SDS011;3186;54.062;9.962;2023-01-09T11:08:58;26.10;;;13.43;;
6306;SDS011;3186;54.062;9.962;2023-01-09T11:14:03;25.83;;;13.60;;
6306;SDS011;3186;54.062;9.962;2023-01-09T11:16:53;21.83;;;14.10;;
6306;SDS011;3186;54.062;9.962;2023-01-09T11:19:21;23.43;;;13.40;;
6306;SDS011;3186;54.062;9.962;2023-01-09T11:21:48;25.07;;;13.63;;
6306;SDS011;3186;54.062;9.962;2023-01-09T11:26:53;19.07;;;11.97;;
6306;SDS011;3186;54.062;9.962;2023-01-09T11:29:42;20.97;;;12.13;;
6306;SDS011;3186;54.062;9.962;2023-01-09T11:32:21;22.73;;;12.43;;
6306;SDS011;3186;54.062;9.962;2023-01-09T11:34:48;21.87;;;11.90;;
6306;SDS011;3186;54.062;9.962;2023-01-09T11:37:17;21.93;;;11.57;;
6306;SDS011;3186;54.062;9.962;2023-01-09T11:39:50;19.63;;;11.53;;
6306;SDS011;3186;54.062;9.962;2023-01-09T11:42:21;18.40;;;11.33;;
6306;SDS011;3186;54.062;9.962;2023-01-09T11:47:41;13.47;;;10.20;;
6306;SDS011;3186;54.062;9.962;2023-01-09T11:50:21;15.90;;;10.17;;
6306;SDS011;3186;54.062;9.962;2023-01-09T11:55:33;19.50;;;10.33;;
6306;SDS011;3186;54.062;9.962;2023-01-09T11:57:59;17.50;;;11.43;;
6306;SDS011;3186;54.062;9.962;2023-01-09T12:00:27;19.63;;;11.63;;
6306;SDS011;3186;54.062;9.962;2023-01-09T12:05:43;17.97;;;10.37;;
6306;SDS011;3186;54.062;9.962;2023-01-09T12:08:54;16.87;;;10.13;;
6306;SDS011;3186;54.062;9.962;2023-01-09T12:14:04;18.30;;;10.30;;
6306;SDS011;3186;54.062;9.962;2023-01-09T12:16:39;19.50;;;10.57;;
6306;SDS011;3186;54.062;9.962;2023-01-09T12:30:35;19.20;;;11.73;;
6306;SDS011;3186;54.062;9.962;2023-01-09T12:36:07;18.20;;;10.20;;
6306;SDS011;3186;54.062;9.962;2023-01-09T12:38:52;27.43;;;11.20;;
6306;SDS011;3186;54.062;9.962;2023-01-09T12:49:48;17.53;;;10.60;;
6306;SDS011;3186;54.062;9.962;2023-01-09T12:55:00;19.80;;;11.50;;
6306;SDS011;3186;54.062;9.962;2023-01-09T12:57:56;18.20;;;10.53;;
6306;SDS011;3186;54.062;9.962;2023-01-09T13:00:29;19.83;;;10.70;;
6306;SDS011;3186;54.062;9.962;2023-01-09T13:05:59;14.97;;;10.17;;
6306;SDS011;3186;54.062;9.962;2023-01-09T13:08:30;15.67;;;10.97;;
6306;SDS011;3186;54.062;9.962;2023-01-09T13:11:14;16.23;;;10.10;;
6306;SDS011;3186;54.062;9.962;2023-01-09T13:16:34;18.10;;;9.60;;
6306;SDS011;3186;54.062;9.962;2023-01-09T13:19:16;19.10;;;10.53;;
6306;SDS011;3186;54.062;9.962;2023-01-09T13:21:48;14.10;;;9.37;;
6306;SDS011;3186;54.062;9.962;2023-01-09T13:24:26;16.03;;;9.87;;
6306;SDS011;3186;54.062;9.962;2023-01-09T13:27:06;14.40;;;9.53;;
6306;SDS011;3186;54.062;9.962;2023-01-09T13:29:41;14.90;;;9.80;;
6306;SDS011;3186;54.062;9.962;2023-01-09T13:34:46;17.53;;;9.23;;
6306;SDS011;3186;54.062;9.962;2023-01-09T13:37:23;14.37;;;9.17;;
6306;SDS011;3186;54.062;9.962;2023-01-09T13:39:59;15.83;;;9.60;;
6306;SDS011;3186;54.062;9.962;2023-01-09T13:43:02;12.67;;;9.47;;
6306;SDS011;3186;54.062;9.962;2023-01-09T13:45:31;15.37;;;8.67;;
6306;SDS011;3186;54.062;9.962;2023-01-09T13:50:41;19.83;;;9.20;;
6306;SDS011;3186;54.062;9.962;2023-01-09T13:56:05;15.37;;;8.90;;
6306;SDS011;3186;54.062;9.962;2023-01-09T14:01:03;13.97;;;8.10;;
6306;SDS011;3186;54.062;9.962;2023-01-09T14:04:51;10.80;;;8.50;;
6306;SDS011;3186;54.062;9.962;2023-01-09T14:09:55;12.33;;;8.27;;
6306;SDS011;3186;54.062;9.962;2023-01-09T14:12:23;12.33;;;8.70;;
6306;SDS011;3186;54.062;9.962;2023-01-09T14:14:52;11.43;;;7.90;;
6306;SDS011;3186;54.062;9.962;2023-01-09T14:17:22;11.13;;;8.50;;
6306;SDS011;3186;54.062;9.962;2023-01-09T14:20:02;12.20;;;8.10;;
6306;SDS011;3186;54.062;9.962;2023-01-09T14:22:32;10.27;;;8.00;;
6306;SDS011;3186;54.062;9.962;2023-01-09T14:25:06;14.17;;;7.97;;
6306;SDS011;3186;54.062;9.962;2023-01-09T14:33:02;13.00;;;9.03;;
6306;SDS011;3186;54.062;9.962;2023-01-09T14:38:39;11.87;;;7.77;;
6306;SDS011;3186;54.062;9.962;2023-01-09T14:44:27;17.63;;;11.57;;
6306;SDS011;3186;54.062;9.962;2023-01-09T14:46:57;10.77;;;8.33;;
6306;SDS011;3186;54.062;9.962;2023-01-09T14:49:30;13.60;;;9.00;;
6306;SDS011;3186;54.062;9.962;2023-01-09T14:52:00;13.87;;;9.63;;
6306;SDS011;3186;54.062;9.962;2023-01-09T14:54:39;12.77;;;8.77;;
6306;SDS011;3186;54.062;9.962;2023-01-09T14:59:56;14.17;;;9.13;;
6306;SDS011;3186;54.062;9.962;2023-01-09T15:02:23;15.00;;;9.67;;
6306;SDS011;3186;54.062;9.962;2023-01-09T15:04:52;16.47;;;9.83;;
6306;SDS011;3186;54.062;9.962;2023-01-09T15:07:23;15.43;;;9.27;;
6306;SDS011;3186;54.062;9.962;2023-01-09T15:09:56;14.63;;;9.00;;
6306;SDS011;3186;54.062;9.962;2023-01-09T15:12:25;14.97;;;9.90;;
6306;SDS011;3186;54.062;9.962;2023-01-09T15:14:52;12.70;;;8.77;;
6306;SDS011;3186;54.062;9.962;2023-01-09T15:17:23;12.07;;;8.70;;
6306;SDS011;3186;54.062;9.962;2023-01-09T15:19:51;13.03;;;9.17;;
6306;SDS011;3186;54.062;9.962;2023-01-09T15:24:53;14.30;;;9.27;;
6306;SDS011;3186;54.062;9.962;2023-01-09T15:27:18;14.37;;;9.03;;
6306;SDS011;3186;54.062;9.962;2023-01-09T15:29:48;12.73;;;9.43;;
6306;SDS011;3186;54.062;9.962;2023-01-09T15:32:21;11.70;;;8.50;;
6306;SDS011;3186;54.062;9.962;2023-01-09T15:34:50;11.60;;;9.10;;
6306;SDS011;3186;54.062;9.962;2023-01-09T15:39:52;16.10;;;9.43;;
6306;SDS011;3186;54.062;9.962;2023-01-09T15:42:23;17.33;;;9.17;;
6306;SDS011;3186;54.062;9.962;2023-01-09T15:51:09;15.13;;;9.47;;
6306;SDS011;3186;54.062;9.962;2023-01-09T15:53:42;13.60;;;9.50;;
6306;SDS011;3186;54.062;9.962;2023-01-09T15:58:48;14.53;;;9.53;;
6306;SDS011;3186;54.062;9.962;2023-01-09T16:03:47;14.87;;;9.70;;
6306;SDS011;3186;54.062;9.962;2023-01-09T16:06:15;17.60;;;11.03;;
6306;SDS011;3186;54.062;9.962;2023-01-09T16:08:48;12.43;;;9.23;;
6306;SDS011;3186;54.062;9.962;2023-01-09T16:11:31;13.20;;;9.67;;
6306;SDS011;3186;54.062;9.962;2023-01-09T16:14:13;16.33;;;10.17;;
6306;SDS011;3186;54.062;9.962;2023-01-09T16:16:44;15.50;;;9.73;;
6306;SDS011;3186;54.062;9.962;2023-01-09T16:21:56;17.73;;;11.33;;
6306;SDS011;3186;54.062;9.962;2023-01-09T16:24:27;13.20;;;9.57;;
6306;SDS011;3186;54.062;9.962;2023-01-09T16:29:57;19.60;;;9.80;;
6306;SDS011;3186;54.062;9.962;2023-01-09T16:32:29;14.30;;;9.80;;
6306;SDS011;3186;54.062;9.962;2023-01-09T16:34:57;14.67;;;9.63;;
6306;SDS011;3186;54.062;9.962;2023-01-09T16:37:25;12.93;;;9.30;;
6306;SDS011;3186;54.062;9.962;2023-01-09T16:42:33;13.90;;;9.63;;
6306;SDS011;3186;54.062;9.962;2023-01-09T16:45:18;13.10;;;9.43;;
6306;SDS011;3186;54.062;9.962;2023-01-09T16:47:45;14.50;;;9.97;;
6306;SDS011;3186;54.062;9.962;2023-01-09T16:50:11;14.57;;;10.00;;
6306;SDS011;3186;54.062;9.962;2023-01-09T16:52:37;15.77;;;10.00;;
6306;SDS011;3186;54.062;9.962;2023-01-09T16:55:04;14.90;;;9.53;;
6306;SDS011;3186;54.062;9.962;2023-01-09T16:57:30;15.23;;;9.60;;
6306;SDS011;3186;54.062;9.962;2023-01-09T16:59:58;16.77;;;9.77;;
6306;SDS011;3186;54.062;9.962;2023-01-09T17:02:25;15.23;;;9.73;;
6306;SDS011;3186;54.062;9.962;2023-01-09T17:04:51;16.10;;;9.60;;
6306;SDS011;3186;54.062;9.962;2023-01-09T17:07:20;16.90;;;9.97;;
6306;SDS011;3186;54.062;9.962;2023-01-09T17:09:50;14.33;;;8.87;;
6306;SDS011;3186;54.062;9.962;2023-01-09T17:12:18;15.13;;;10.17;;
6306;SDS011;3186;54.062;9.962;2023-01-09T17:14:46;17.97;;;11.07;;
6306;SDS011;3186;54.062;9.962;2023-01-09T17:17:13;14.80;;;10.20;;
6306;SDS011;3186;54.062;9.962;2023-01-09T17:19:40;15.83;;;10.07;;
6306;SDS011;3186;54.062;9.962;2023-01-09T17:22:06;16.93;;;10.17;;
6306;SDS011;3186;54.062;9.962;2023-01-09T17:24:33;18.60;;;11.23;;
6306;SDS011;3186;54.062;9.962;2023-01-09T17:27:19;15.17;;;11.27;;
6306;SDS011;3186;54.062;9.962;2023-01-09T17:30:09;15.80;;;11.07;;
6306;SDS011;3186;54.062;9.962;2023-01-09T17:32:35;17.63;;;11.53;;
6306;SDS011;3186;54.062;9.962;2023-01-09T17:35:01;15.47;;;10.90;;
6306;SDS011;3186;54.062;9.962;2023-01-09T17:37:26;18.27;;;12.93;;
6306;SDS011;3186;54.062;9.962;2023-01-09T17:39:52;15.63;;;11.30;;
6306;SDS011;3186;54.062;9.962;2023-01-09T17:42:23;16.10;;;11.20;;
6306;SDS011;3186;54.062;9.962;2023-01-09T17:44:49;16.57;;;11.60;;
6306;SDS011;3186;54.062;9.962;2023-01-09T17:47:16;17.43;;;12.20;;
6306;SDS011;3186;54.062;9.962;2023-01-09T17:49:42;18.33;;;12.30;;
6306;SDS011;3186;54.062;9.962;2023-01-09T17:52:08;14.33;;;11.10;;
6306;SDS011;3186;54.062;9.962;2023-01-09T17:54:34;15.97;;;11.73;;
6306;SDS011;3186;54.062;9.962;2023-01-09T17:57:00;15.43;;;11.73;;
6306;SDS011;3186;54.062;9.962;2023-01-09T17:59:26;21.70;;;12.70;;
6306;SDS011;3186;54.062;9.962;2023-01-09T18:01:54;18.57;;;12.33;;
6306;SDS011;3186;54.062;9.962;2023-01-09T18:04:21;17.83;;;12.67;;
6306;SDS011;3186;54.062;9.962;2023-01-09T18:06:47;17.97;;;11.57;;